This is the latest recevied weather packets stored in our database for station/object KD8OUK. If no packets are shown the sender has not sent any weather packets the latest 10 day(s).
| Time | Temp. | Humidity | Pressure | Rain* | Wind** | Luminosity | Snow |
|---|---|---|---|---|---|---|---|
| 1777496419 | 15.56° C | 81% | 1010.1 hPa | 0 mm | - | - | - |
| 1777496128 | 15.56° C | 79% | 1010 hPa | 0 mm | - | - | - |
| 1777495820 | 15.56° C | 77% | 1010 hPa | 0 mm | - | - | - |
| 1777495530 | 16.11° C | 77% | 1010 hPa | 0 mm | - | - | - |
| 1777495222 | 16.11° C | 77% | 1010 hPa | 0 mm | - | - | - |
| 1777494933 | 16.11° C | 77% | 1010 hPa | 0 mm | - | - | - |
| 1777494625 | 15.56° C | 80% | 1010 hPa | 0 mm | - | - | - |
| 1777494317 | 15.56° C | 80% | 1010 hPa | 0 mm | - | - | - |
| 1777494027 | 15.56° C | 79% | 1010 hPa | 0 mm | - | - | - |
| 1777493719 | 15.56° C | 79% | 1010.1 hPa | 0 mm | - | - | - |
| 1777493425 | 16.11° C | 79% | 1010.2 hPa | 0 mm | - | - | - |
| 1777493116 | 16.67° C | 77% | 1010.2 hPa | 0 mm | - | - | - |
| 1777492826 | 17.22° C | 78% | 1010.2 hPa | 0 mm | - | - | - |
| 1777492517 | 16.11° C | 81% | 1010.2 hPa | 0 mm | - | - | - |
| 1777492227 | 15.56° C | 83% | 1010.3 hPa | 0 mm | - | - | - |
| 1777491919 | 15° C | 86% | 1010.4 hPa | 0 mm | - | - | - |
| 1777491624 | 15° C | 85% | 1010.4 hPa | 0 mm | - | - | - |
| 1777491322 | 15° C | 84% | 1010.3 hPa | 0 mm | - | - | - |
| 1777491020 | - | - | 1010.3 hPa | 0 mm | - | - | - |
| 1777490719 | 15° C | 83% | 1010.3 hPa | 0 mm | - | - | - |
| 1777490416 | 15° C | 82% | 1010.3 hPa | 0 mm | - | - | - |
| 1777490127 | 15° C | 82% | 1010.3 hPa | 0 mm | - | - | - |
| 1777489819 | 15° C | 83% | 1010.2 hPa | 0 mm | - | - | - |
| 1777489528 | 15.56° C | 83% | 1010.2 hPa | 0 mm | - | - | - |
| 1777489221 | 15° C | 83% | 1010.2 hPa | 0 mm | - | - | - |
* Rain latest hour (hover to see other rain measurements)
** Current wind speed in m/s (hover to see current wind gust speed)